Airfield :
LOGIN :

Register | Disclaimer

   EN    FR    IT 

 










Legend :    VFR   Marginal VFR   IFR   Intensive IFR   Very Intensive IFR
Visi :
Ceiling :
>= 8 km
>= 3000ft
5 to 8 km
1000 to 3000 ft
1500m to 5 km
500 to 1000 ft
800 to 1500m
200 to 500 ft
< 800m
< 200 ft
Symbols :   Thunderstorms  Fog  Heavy snow  Heavy precipitations  Wind > 20 kt
SIGMETs :     Misc.  Thunderstorms  Icing  Turbulence  Mountain Waves  Volcanic Ashes






- Airport Elevation : 526 ft
- IATA code : LTN


EGGW - London Luton

CURRENT METAR :
  • 150220Z AUTO 35008KT 1800 BR OVC001 03/03 Q1004

EXPIRED METARs :
  • 150150Z AUTO 01007KT 2600 BR OVC001 03/03 Q1004
  • 150120Z AUTO 01007KT 0150 R08/0400 FG VV/// 03/03 Q1004
  • 150050Z AUTO 35007KT 0200 R08/0600 FG VV/// 03/03 Q1004
  • 150020Z AUTO 01006KT 0250 R08/0500 FG BKN001 OVC041 03/03 Q1004
  • 142350Z AUTO 36006KT 0450 R08/0800 FG VV/// 03/03 Q1004

TAF TAF EGGW
Valid from the 15 at 00:00 until the 16 at 00:00 UTC


142301Z 1500/1524 01007KT 0300 FG VV///
BECMG 1500/1503 9999 NSW FEW004
TEMPO 1503/1506 3000 BR BKN002
PROB40
TEMPO 1503/1506 0300 FG BKN001
TEMPO 1506/1510 6000 SHRA BKN003
TEMPO 1511/1519 02018G28KT
BECMG 1515/1518 BKN010
TEMPO 1516/1524 6000 RA BKN006
ATIS : +44 1582 395 204



MET'MAP, your aeronautical weather chart ! - Copyright ORBIFLY December 2007 - Disclaimer

ORBIFLY MET'MAP TEAM :

Programming & Development : Alexandra Zaïnal
Concept & Development : Baudouin d'Aumeries
Co-Development & Prog : Marc-Olivier Méhu
Technical & hardware support : Manuel Goepfert

Contact : metmap@orbifly.com




SOURCES & CREDITS :

   NOAA